Denny Creek, Washington
Current Conditions -  °F | °C
As of 2:53 AM on Saturday 25 Oct 2014 (Local Time) from KRNT Reporting Station
Few Clouds Few Clouds  
Wind Chill: 51°   Ceiling: Unl
Heat Index: 51°   Visibility: 10mi
Dew Point: 50°   Wind: 9mph
Humidity: 96%   Direction: 310°NW
Pressure: 29.61"   Gusts: NA
Location:  47.4594°N, 121.612°W
Report Text: KRNT 250953Z AUTO 31008KT 10SM FEW095 11/10 A2961 RMK AO2 SLP033 T01060100
Loading
Personal Weather Stations






























Interactive Weather Map
Tropical Storm Tracking
New forecast layout! Learn more

10-Day Weather Forecast

Advertisements
Track Severe Weather on mobile